Airport View

Enter ICAO identifier to see the current METAR for that AWOS.

KFNL for example

KLGB 300153Z 31009KT 10SM CLR 24/16 A2979

30 Aug 2014 02:22

Phone: 562-424-0572

Other Area AWOS: KSLI - KTOA - KFUL - KHHR

TAF KLGB 292339Z 3000/3024 31009KT P6SM SKC FM300500 VRB03KT P6SM SKC FM300800 VRB03KT 6SM BR OVC008 FM301700 19004KT P6SM SKC FM302100 20007KT P6SM SKC